sensor_id;sensor_type;location;lat;lon;timestamp;P1;durP1;ratioP1;P2;durP2;ratioP2
26034;SDS011;13809;48.632;11.576;2023-04-25T00:02:14;4.43;;;2.73;;
26034;SDS011;13809;48.632;11.576;2023-04-25T00:07:17;3.07;;;2.77;;
26034;SDS011;13809;48.632;11.576;2023-04-25T00:12:22;3.03;;;2.83;;
26034;SDS011;13809;48.632;11.576;2023-04-25T00:17:25;3.50;;;2.90;;
26034;SDS011;13809;48.632;11.576;2023-04-25T00:22:29;3.23;;;2.40;;
26034;SDS011;13809;48.632;11.576;2023-04-25T00:27:33;2.80;;;2.60;;
26034;SDS011;13809;48.632;11.576;2023-04-25T00:32:37;2.80;;;2.50;;
26034;SDS011;13809;48.632;11.576;2023-04-25T00:37:40;3.47;;;2.30;;
26034;SDS011;13809;48.632;11.576;2023-04-25T00:42:44;2.77;;;2.53;;
26034;SDS011;13809;48.632;11.576;2023-04-25T00:47:48;2.03;;;1.93;;
26034;SDS011;13809;48.632;11.576;2023-04-25T00:52:52;2.13;;;1.97;;
26034;SDS011;13809;48.632;11.576;2023-04-25T00:57:57;2.13;;;2.03;;
26034;SDS011;13809;48.632;11.576;2023-04-25T01:03:00;2.23;;;2.13;;
26034;SDS011;13809;48.632;11.576;2023-04-25T01:08:05;2.50;;;2.30;;
26034;SDS011;13809;48.632;11.576;2023-04-25T01:13:09;2.30;;;2.10;;
26034;SDS011;13809;48.632;11.576;2023-04-25T01:18:12;1.60;;;1.50;;
26034;SDS011;13809;48.632;11.576;2023-04-25T01:23:17;2.40;;;2.20;;
26034;SDS011;13809;48.632;11.576;2023-04-25T01:28:21;2.67;;;2.20;;
26034;SDS011;13809;48.632;11.576;2023-04-25T01:33:24;2.70;;;2.50;;
26034;SDS011;13809;48.632;11.576;2023-04-25T01:38:28;2.40;;;2.30;;
26034;SDS011;13809;48.632;11.576;2023-04-25T01:43:32;2.67;;;2.47;;
26034;SDS011;13809;48.632;11.576;2023-04-25T01:48:36;2.50;;;2.30;;
26034;SDS011;13809;48.632;11.576;2023-04-25T01:53:41;2.57;;;2.37;;
26034;SDS011;13809;48.632;11.576;2023-04-25T01:58:45;3.07;;;2.40;;
26034;SDS011;13809;48.632;11.576;2023-04-25T02:03:48;2.40;;;2.20;;
26034;SDS011;13809;48.632;11.576;2023-04-25T02:08:53;3.40;;;2.40;;
26034;SDS011;13809;48.632;11.576;2023-04-25T02:13:57;2.40;;;2.20;;
26034;SDS011;13809;48.632;11.576;2023-04-25T02:19:00;3.23;;;2.40;;
26034;SDS011;13809;48.632;11.576;2023-04-25T02:24:05;3.27;;;2.30;;
26034;SDS011;13809;48.632;11.576;2023-04-25T02:29:09;2.20;;;2.10;;
26034;SDS011;13809;48.632;11.576;2023-04-25T02:34:12;2.17;;;2.00;;
26034;SDS011;13809;48.632;11.576;2023-04-25T02:39:17;2.50;;;2.30;;
26034;SDS011;13809;48.632;11.576;2023-04-25T02:44:20;2.17;;;2.07;;
26034;SDS011;13809;48.632;11.576;2023-04-25T02:49:23;2.63;;;2.33;;
26034;SDS011;13809;48.632;11.576;2023-04-25T02:54:29;2.70;;;2.20;;
26034;SDS011;13809;48.632;11.576;2023-04-25T02:59:33;2.57;;;2.37;;
26034;SDS011;13809;48.632;11.576;2023-04-25T03:04:36;2.87;;;2.30;;
26034;SDS011;13809;48.632;11.576;2023-04-25T03:09:41;2.40;;;2.20;;
26034;SDS011;13809;48.632;11.576;2023-04-25T03:14:44;3.43;;;2.43;;
26034;SDS011;13809;48.632;11.576;2023-04-25T03:19:47;4.37;;;2.43;;
26034;SDS011;13809;48.632;11.576;2023-04-25T03:24:52;2.67;;;2.23;;
26034;SDS011;13809;48.632;11.576;2023-04-25T03:29:55;2.40;;;2.17;;
26034;SDS011;13809;48.632;11.576;2023-04-25T03:34:58;2.30;;;2.10;;
26034;SDS011;13809;48.632;11.576;2023-04-25T03:40:03;4.87;;;2.47;;
26034;SDS011;13809;48.632;11.576;2023-04-25T03:45:07;6.90;;;4.63;;
26034;SDS011;13809;48.632;11.576;2023-04-25T03:50:11;4.00;;;3.20;;
26034;SDS011;13809;48.632;11.576;2023-04-25T03:55:15;3.93;;;3.00;;
26034;SDS011;13809;48.632;11.576;2023-04-25T04:00:19;3.03;;;2.83;;
26034;SDS011;13809;48.632;11.576;2023-04-25T04:05:22;2.80;;;2.50;;
26034;SDS011;13809;48.632;11.576;2023-04-25T04:10:27;2.70;;;2.50;;
26034;SDS011;13809;48.632;11.576;2023-04-25T04:15:30;1.87;;;1.77;;
26034;SDS011;13809;48.632;11.576;2023-04-25T04:20:34;2.43;;;2.23;;
26034;SDS011;13809;48.632;11.576;2023-04-25T04:25:39;2.60;;;2.37;;
26034;SDS011;13809;48.632;11.576;2023-04-25T04:30:43;3.03;;;2.53;;
26034;SDS011;13809;48.632;11.576;2023-04-25T04:35:47;3.23;;;2.43;;
26034;SDS011;13809;48.632;11.576;2023-04-25T04:40:51;2.70;;;2.50;;
26034;SDS011;13809;48.632;11.576;2023-04-25T04:45:55;9.17;;;5.10;;
26034;SDS011;13809;48.632;11.576;2023-04-25T04:50:58;3.30;;;3.00;;
26034;SDS011;13809;48.632;11.576;2023-04-25T04:56:03;3.50;;;3.20;;
26034;SDS011;13809;48.632;11.576;2023-04-25T05:01:06;4.73;;;3.73;;
26034;SDS011;13809;48.632;11.576;2023-04-25T05:06:10;4.00;;;3.60;;
26034;SDS011;13809;48.632;11.576;2023-04-25T05:11:14;3.73;;;3.43;;
26034;SDS011;13809;48.632;11.576;2023-04-25T05:16:17;4.37;;;3.97;;
26034;SDS011;13809;48.632;11.576;2023-04-25T05:21:21;3.50;;;3.20;;
26034;SDS011;13809;48.632;11.576;2023-04-25T05:26:28;3.33;;;2.90;;
26034;SDS011;13809;48.632;11.576;2023-04-25T05:31:32;3.40;;;2.70;;
26034;SDS011;13809;48.632;11.576;2023-04-25T05:36:35;3.47;;;2.90;;
26034;SDS011;13809;48.632;11.576;2023-04-25T05:41:40;4.70;;;2.70;;
26034;SDS011;13809;48.632;11.576;2023-04-25T05:46:43;3.00;;;2.80;;
26034;SDS011;13809;48.632;11.576;2023-04-25T05:51:46;3.30;;;3.00;;
26034;SDS011;13809;48.632;11.576;2023-04-25T05:56:51;3.03;;;2.60;;
26034;SDS011;13809;48.632;11.576;2023-04-25T06:01:54;4.40;;;2.93;;
26034;SDS011;13809;48.632;11.576;2023-04-25T06:06:57;3.50;;;3.20;;
26034;SDS011;13809;48.632;11.576;2023-04-25T06:12:02;3.50;;;3.20;;
26034;SDS011;13809;48.632;11.576;2023-04-25T06:17:05;4.10;;;3.70;;
26034;SDS011;13809;48.632;11.576;2023-04-25T06:22:09;4.57;;;3.80;;
26034;SDS011;13809;48.632;11.576;2023-04-25T06:27:14;4.60;;;3.80;;
26034;SDS011;13809;48.632;11.576;2023-04-25T06:32:17;6.67;;;4.90;;
26034;SDS011;13809;48.632;11.576;2023-04-25T06:37:21;5.93;;;5.23;;
26034;SDS011;13809;48.632;11.576;2023-04-25T06:42:26;3.37;;;3.07;;
26034;SDS011;13809;48.632;11.576;2023-04-25T06:47:29;4.57;;;3.10;;
26034;SDS011;13809;48.632;11.576;2023-04-25T06:52:32;3.00;;;2.80;;
26034;SDS011;13809;48.632;11.576;2023-04-25T06:57:36;2.97;;;2.40;;
26034;SDS011;13809;48.632;11.576;2023-04-25T07:02:39;2.60;;;2.37;;
26034;SDS011;13809;48.632;11.576;2023-04-25T07:07:44;2.60;;;2.40;;
26034;SDS011;13809;48.632;11.576;2023-04-25T07:12:49;2.73;;;2.50;;
26034;SDS011;13809;48.632;11.576;2023-04-25T07:17:52;2.87;;;2.57;;
26034;SDS011;13809;48.632;11.576;2023-04-25T07:22:55;2.60;;;2.40;;
26034;SDS011;13809;48.632;11.576;2023-04-25T07:28:00;3.13;;;2.63;;
26034;SDS011;13809;48.632;11.576;2023-04-25T07:33:03;3.40;;;3.10;;
26034;SDS011;13809;48.632;11.576;2023-04-25T07:38:06;3.30;;;2.57;;
26034;SDS011;13809;48.632;11.576;2023-04-25T07:43:12;3.83;;;3.00;;
26034;SDS011;13809;48.632;11.576;2023-04-25T07:48:18;2.70;;;2.50;;
26034;SDS011;13809;48.632;11.576;2023-04-25T07:53:21;2.70;;;2.50;;
26034;SDS011;13809;48.632;11.576;2023-04-25T07:58:26;2.93;;;2.70;;
26034;SDS011;13809;48.632;11.576;2023-04-25T08:03:29;3.87;;;2.80;;
26034;SDS011;13809;48.632;11.576;2023-04-25T08:08:32;2.93;;;2.63;;
26034;SDS011;13809;48.632;11.576;2023-04-25T08:13:37;2.60;;;2.27;;
26034;SDS011;13809;48.632;11.576;2023-04-25T08:18:40;3.23;;;2.93;;
26034;SDS011;13809;48.632;11.576;2023-04-25T08:23:44;3.00;;;2.60;;
26034;SDS011;13809;48.632;11.576;2023-04-25T08:28:48;3.57;;;2.63;;
26034;SDS011;13809;48.632;11.576;2023-04-25T08:33:52;3.37;;;2.50;;
26034;SDS011;13809;48.632;11.576;2023-04-25T08:38:55;3.10;;;2.77;;
26034;SDS011;13809;48.632;11.576;2023-04-25T08:44:00;3.17;;;2.87;;
26034;SDS011;13809;48.632;11.576;2023-04-25T08:49:05;2.70;;;2.50;;
26034;SDS011;13809;48.632;11.576;2023-04-25T08:54:11;4.07;;;2.67;;
26034;SDS011;13809;48.632;11.576;2023-04-25T08:59:19;2.70;;;2.50;;
26034;SDS011;13809;48.632;11.576;2023-04-25T09:04:23;2.50;;;2.30;;
26034;SDS011;13809;48.632;11.576;2023-04-25T09:09:27;3.40;;;2.60;;
26034;SDS011;13809;48.632;11.576;2023-04-25T09:14:31;3.53;;;2.77;;
26034;SDS011;13809;48.632;11.576;2023-04-25T09:19:35;3.00;;;2.40;;
26034;SDS011;13809;48.632;11.576;2023-04-25T09:24:43;5.27;;;2.80;;
26034;SDS011;13809;48.632;11.576;2023-04-25T09:29:48;3.23;;;2.90;;
26034;SDS011;13809;48.632;11.576;2023-04-25T09:34:59;3.07;;;2.87;;
26034;SDS011;13809;48.632;11.576;2023-04-25T09:40:05;3.00;;;2.77;;
26034;SDS011;13809;48.632;11.576;2023-04-25T09:45:11;3.37;;;2.70;;
26034;SDS011;13809;48.632;11.576;2023-04-25T09:50:16;5.93;;;3.00;;
26034;SDS011;13809;48.632;11.576;2023-04-25T09:55:20;2.63;;;2.33;;
26034;SDS011;13809;48.632;11.576;2023-04-25T10:00:25;1.60;;;1.50;;
26034;SDS011;13809;48.632;11.576;2023-04-25T10:05:30;1.80;;;1.70;;
26034;SDS011;13809;48.632;11.576;2023-04-25T10:10:35;1.30;;;1.20;;
26034;SDS011;13809;48.632;11.576;2023-04-25T10:15:41;1.23;;;1.23;;
26034;SDS011;13809;48.632;11.576;2023-04-25T10:20:44;1.40;;;1.30;;
26034;SDS011;13809;48.632;11.576;2023-04-25T10:25:48;1.33;;;1.33;;
26034;SDS011;13809;48.632;11.576;2023-04-25T10:31:00;1.27;;;1.20;;
26034;SDS011;13809;48.632;11.576;2023-04-25T10:36:10;1.63;;;1.53;;
26034;SDS011;13809;48.632;11.576;2023-04-25T10:41:15;1.23;;;1.23;;
26034;SDS011;13809;48.632;11.576;2023-04-25T10:46:23;0.90;;;0.90;;
26034;SDS011;13809;48.632;11.576;2023-04-25T10:51:27;0.70;;;0.70;;
26034;SDS011;13809;48.632;11.576;2023-04-25T10:56:44;1.20;;;1.20;;
26034;SDS011;13809;48.632;11.576;2023-04-25T11:01:49;1.57;;;1.47;;
26034;SDS011;13809;48.632;11.576;2023-04-25T11:07:07;1.33;;;1.30;;
26034;SDS011;13809;48.632;11.576;2023-04-25T11:12:20;1.30;;;1.30;;
26034;SDS011;13809;48.632;11.576;2023-04-25T11:17:26;1.40;;;1.30;;
26034;SDS011;13809;48.632;11.576;2023-04-25T11:22:30;2.20;;;1.20;;
26034;SDS011;13809;48.632;11.576;2023-04-25T11:27:34;1.23;;;1.23;;
26034;SDS011;13809;48.632;11.576;2023-04-25T11:32:41;1.80;;;1.70;;
26034;SDS011;13809;48.632;11.576;2023-04-25T11:37:45;1.50;;;1.40;;
26034;SDS011;13809;48.632;11.576;2023-04-25T11:42:48;1.60;;;1.50;;
26034;SDS011;13809;48.632;11.576;2023-04-25T11:47:55;1.83;;;1.67;;
26034;SDS011;13809;48.632;11.576;2023-04-25T11:52:58;2.37;;;2.17;;
26034;SDS011;13809;48.632;11.576;2023-04-25T11:58:03;1.90;;;1.80;;
26034;SDS011;13809;48.632;11.576;2023-04-25T12:03:08;1.87;;;1.77;;
26034;SDS011;13809;48.632;11.576;2023-04-25T12:08:12;2.10;;;2.00;;
26034;SDS011;13809;48.632;11.576;2023-04-25T12:13:20;2.63;;;1.97;;
26034;SDS011;13809;48.632;11.576;2023-04-25T12:18:25;2.30;;;2.10;;
26034;SDS011;13809;48.632;11.576;2023-04-25T12:23:29;2.30;;;2.10;;
26034;SDS011;13809;48.632;11.576;2023-04-25T12:28:32;2.10;;;1.90;;
26034;SDS011;13809;48.632;11.576;2023-04-25T12:33:37;2.20;;;1.90;;
26034;SDS011;13809;48.632;11.576;2023-04-25T12:38:41;2.87;;;2.00;;
26034;SDS011;13809;48.632;11.576;2023-04-25T12:43:44;1.90;;;1.80;;
26034;SDS011;13809;48.632;11.576;2023-04-25T12:48:49;2.10;;;1.93;;
26034;SDS011;13809;48.632;11.576;2023-04-25T12:53:53;2.80;;;1.97;;
26034;SDS011;13809;48.632;11.576;2023-04-25T12:58:56;2.77;;;2.57;;
26034;SDS011;13809;48.632;11.576;2023-04-25T13:04:00;2.40;;;2.20;;
26034;SDS011;13809;48.632;11.576;2023-04-25T13:09:04;2.20;;;2.00;;
26034;SDS011;13809;48.632;11.576;2023-04-25T13:14:07;2.20;;;2.00;;
26034;SDS011;13809;48.632;11.576;2023-04-25T13:19:12;2.50;;;2.30;;
26034;SDS011;13809;48.632;11.576;2023-04-25T13:24:16;2.73;;;2.53;;
26034;SDS011;13809;48.632;11.576;2023-04-25T13:29:19;2.40;;;2.20;;
26034;SDS011;13809;48.632;11.576;2023-04-25T13:34:24;2.43;;;2.23;;
26034;SDS011;13809;48.632;11.576;2023-04-25T13:39:27;2.57;;;2.40;;
26034;SDS011;13809;48.632;11.576;2023-04-25T13:44:30;2.80;;;2.60;;
26034;SDS011;13809;48.632;11.576;2023-04-25T13:49:34;2.53;;;2.40;;
26034;SDS011;13809;48.632;11.576;2023-04-25T13:54:37;2.63;;;2.43;;
26034;SDS011;13809;48.632;11.576;2023-04-25T13:59:41;2.67;;;2.47;;
26034;SDS011;13809;48.632;11.576;2023-04-25T14:04:46;3.03;;;2.73;;
26034;SDS011;13809;48.632;11.576;2023-04-25T14:09:49;2.80;;;2.40;;
26034;SDS011;13809;48.632;11.576;2023-04-25T14:14:52;2.60;;;2.40;;
26034;SDS011;13809;48.632;11.576;2023-04-25T14:19:57;2.83;;;2.43;;
26034;SDS011;13809;48.632;11.576;2023-04-25T14:25:00;2.80;;;2.60;;
26034;SDS011;13809;48.632;11.576;2023-04-25T14:30:04;2.30;;;2.10;;
26034;SDS011;13809;48.632;11.576;2023-04-25T14:35:11;2.40;;;2.30;;
26034;SDS011;13809;48.632;11.576;2023-04-25T14:40:15;2.70;;;2.50;;
26034;SDS011;13809;48.632;11.576;2023-04-25T14:45:18;2.90;;;2.70;;
26034;SDS011;13809;48.632;11.576;2023-04-25T14:50:23;2.83;;;2.50;;
26034;SDS011;13809;48.632;11.576;2023-04-25T14:55:26;2.27;;;2.17;;
26034;SDS011;13809;48.632;11.576;2023-04-25T15:00:29;3.60;;;3.30;;
26034;SDS011;13809;48.632;11.576;2023-04-25T15:05:34;2.70;;;2.53;;
26034;SDS011;13809;48.632;11.576;2023-04-25T15:10:37;3.07;;;2.50;;
26034;SDS011;13809;48.632;11.576;2023-04-25T15:15:40;2.93;;;2.73;;
26034;SDS011;13809;48.632;11.576;2023-04-25T15:20:45;2.17;;;2.03;;
26034;SDS011;13809;48.632;11.576;2023-04-25T15:25:49;2.33;;;2.10;;
26034;SDS011;13809;48.632;11.576;2023-04-25T15:30:53;2.43;;;2.00;;
26034;SDS011;13809;48.632;11.576;2023-04-25T15:35:58;1.80;;;1.70;;
26034;SDS011;13809;48.632;11.576;2023-04-25T15:41:01;2.57;;;2.37;;
26034;SDS011;13809;48.632;11.576;2023-04-25T15:46:06;2.90;;;2.70;;
26034;SDS011;13809;48.632;11.576;2023-04-25T15:51:11;2.30;;;2.20;;
26034;SDS011;13809;48.632;11.576;2023-04-25T15:56:16;2.30;;;2.20;;
26034;SDS011;13809;48.632;11.576;2023-04-25T16:01:19;2.63;;;2.43;;
26034;SDS011;13809;48.632;11.576;2023-04-25T16:06:26;2.80;;;2.60;;
26034;SDS011;13809;48.632;11.576;2023-04-25T16:11:29;2.70;;;2.50;;
26034;SDS011;13809;48.632;11.576;2023-04-25T16:16:32;2.63;;;2.33;;
26034;SDS011;13809;48.632;11.576;2023-04-25T16:21:37;2.77;;;2.57;;
26034;SDS011;13809;48.632;11.576;2023-04-25T16:26:40;2.63;;;2.43;;
26034;SDS011;13809;48.632;11.576;2023-04-25T16:31:44;2.90;;;2.70;;
26034;SDS011;13809;48.632;11.576;2023-04-25T16:36:49;2.90;;;2.70;;
26034;SDS011;13809;48.632;11.576;2023-04-25T16:41:55;2.57;;;2.37;;
26034;SDS011;13809;48.632;11.576;2023-04-25T16:46:58;2.83;;;2.63;;
26034;SDS011;13809;48.632;11.576;2023-04-25T16:52:03;3.10;;;2.80;;
26034;SDS011;13809;48.632;11.576;2023-04-25T16:57:06;3.60;;;3.30;;
26034;SDS011;13809;48.632;11.576;2023-04-25T17:02:11;3.00;;;2.80;;
26034;SDS011;13809;48.632;11.576;2023-04-25T17:07:17;3.40;;;3.10;;
26034;SDS011;13809;48.632;11.576;2023-04-25T17:12:25;3.70;;;3.33;;
26034;SDS011;13809;48.632;11.576;2023-04-25T17:17:28;3.50;;;3.20;;
26034;SDS011;13809;48.632;11.576;2023-04-25T17:22:33;3.40;;;3.10;;
26034;SDS011;13809;48.632;11.576;2023-04-25T17:27:37;4.57;;;3.50;;
26034;SDS011;13809;48.632;11.576;2023-04-25T17:32:40;3.17;;;2.87;;
26034;SDS011;13809;48.632;11.576;2023-04-25T17:37:45;3.50;;;3.20;;
26034;SDS011;13809;48.632;11.576;2023-04-25T17:42:48;3.83;;;3.53;;
26034;SDS011;13809;48.632;11.576;2023-04-25T17:47:52;4.53;;;4.13;;
26034;SDS011;13809;48.632;11.576;2023-04-25T17:52:56;4.87;;;3.97;;
26034;SDS011;13809;48.632;11.576;2023-04-25T17:58:00;4.20;;;3.87;;
26034;SDS011;13809;48.632;11.576;2023-04-25T18:03:03;4.17;;;3.77;;
26034;SDS011;13809;48.632;11.576;2023-04-25T18:08:08;4.07;;;3.67;;
26034;SDS011;13809;48.632;11.576;2023-04-25T18:13:11;4.17;;;3.77;;
26034;SDS011;13809;48.632;11.576;2023-04-25T18:18:14;4.97;;;4.20;;
26034;SDS011;13809;48.632;11.576;2023-04-25T18:23:22;4.43;;;3.97;;
26034;SDS011;13809;48.632;11.576;2023-04-25T18:28:25;5.07;;;4.57;;
26034;SDS011;13809;48.632;11.576;2023-04-25T18:33:28;5.40;;;4.90;;
26034;SDS011;13809;48.632;11.576;2023-04-25T18:38:33;5.13;;;4.63;;
26034;SDS011;13809;48.632;11.576;2023-04-25T18:43:36;4.30;;;3.90;;
26034;SDS011;13809;48.632;11.576;2023-04-25T18:48:39;4.83;;;3.97;;
26034;SDS011;13809;48.632;11.576;2023-04-25T18:53:44;4.63;;;4.17;;
26034;SDS011;13809;48.632;11.576;2023-04-25T18:58:48;4.20;;;3.87;;
26034;SDS011;13809;48.632;11.576;2023-04-25T19:03:52;4.67;;;4.17;;
26034;SDS011;13809;48.632;11.576;2023-04-25T19:08:59;5.43;;;4.50;;
26034;SDS011;13809;48.632;11.576;2023-04-25T19:14:02;5.37;;;3.53;;
26034;SDS011;13809;48.632;11.576;2023-04-25T19:19:06;3.60;;;3.30;;
26034;SDS011;13809;48.632;11.576;2023-04-25T19:24:11;4.93;;;4.43;;
26034;SDS011;13809;48.632;11.576;2023-04-25T19:29:15;4.97;;;4.43;;
26034;SDS011;13809;48.632;11.576;2023-04-25T19:34:18;4.63;;;4.23;;
26034;SDS011;13809;48.632;11.576;2023-04-25T19:39:23;4.47;;;4.07;;
26034;SDS011;13809;48.632;11.576;2023-04-25T19:44:26;5.07;;;4.00;;
26034;SDS011;13809;48.632;11.576;2023-04-25T19:49:29;4.13;;;3.73;;
26034;SDS011;13809;48.632;11.576;2023-04-25T19:54:33;4.30;;;3.90;;
26034;SDS011;13809;48.632;11.576;2023-04-25T19:59:36;4.33;;;4.03;;
26034;SDS011;13809;48.632;11.576;2023-04-25T20:04:40;4.70;;;4.27;;
26034;SDS011;13809;48.632;11.576;2023-04-25T20:09:45;4.27;;;3.87;;
26034;SDS011;13809;48.632;11.576;2023-04-25T20:14:48;3.30;;;3.10;;
26034;SDS011;13809;48.632;11.576;2023-04-25T20:19:51;4.20;;;3.80;;
26034;SDS011;13809;48.632;11.576;2023-04-25T20:24:55;4.17;;;3.77;;
26034;SDS011;13809;48.632;11.576;2023-04-25T20:29:58;3.77;;;3.47;;
26034;SDS011;13809;48.632;11.576;2023-04-25T20:35:06;4.20;;;3.80;;
26034;SDS011;13809;48.632;11.576;2023-04-25T20:40:11;3.87;;;3.47;;
26034;SDS011;13809;48.632;11.576;2023-04-25T20:45:15;3.47;;;3.27;;
26034;SDS011;13809;48.632;11.576;2023-04-25T20:50:18;3.87;;;3.57;;
26034;SDS011;13809;48.632;11.576;2023-04-25T20:55:23;4.00;;;3.60;;
26034;SDS011;13809;48.632;11.576;2023-04-25T21:00:27;3.53;;;3.27;;
26034;SDS011;13809;48.632;11.576;2023-04-25T21:05:30;3.90;;;3.60;;
26034;SDS011;13809;48.632;11.576;2023-04-25T21:10:34;3.73;;;3.43;;
26034;SDS011;13809;48.632;11.576;2023-04-25T21:15:38;3.80;;;3.50;;
26034;SDS011;13809;48.632;11.576;2023-04-25T21:20:41;3.60;;;3.23;;
26034;SDS011;13809;48.632;11.576;2023-04-25T21:25:45;3.67;;;3.37;;
26034;SDS011;13809;48.632;11.576;2023-04-25T21:30:51;3.83;;;3.53;;
26034;SDS011;13809;48.632;11.576;2023-04-25T21:35:54;3.87;;;3.50;;
26034;SDS011;13809;48.632;11.576;2023-04-25T21:40:59;4.17;;;3.77;;
26034;SDS011;13809;48.632;11.576;2023-04-25T21:46:02;4.57;;;4.17;;
26034;SDS011;13809;48.632;11.576;2023-04-25T21:51:23;4.60;;;4.20;;
26034;SDS011;13809;48.632;11.576;2023-04-25T21:56:28;4.23;;;3.90;;
26034;SDS011;13809;48.632;11.576;2023-04-25T22:01:31;5.03;;;4.20;;
26034;SDS011;13809;48.632;11.576;2023-04-25T22:06:34;5.40;;;4.20;;
26034;SDS011;13809;48.632;11.576;2023-04-25T22:11:39;4.80;;;4.37;;
26034;SDS011;13809;48.632;11.576;2023-04-25T22:16:43;5.20;;;4.70;;
26034;SDS011;13809;48.632;11.576;2023-04-25T22:21:46;5.40;;;4.90;;
26034;SDS011;13809;48.632;11.576;2023-04-25T22:26:51;4.70;;;4.33;;
26034;SDS011;13809;48.632;11.576;2023-04-25T22:31:54;5.30;;;4.87;;
26034;SDS011;13809;48.632;11.576;2023-04-25T22:36:58;6.37;;;5.20;;
26034;SDS011;13809;48.632;11.576;2023-04-25T22:42:03;5.30;;;4.87;;
26034;SDS011;13809;48.632;11.576;2023-04-25T22:47:07;5.60;;;5.00;;
26034;SDS011;13809;48.632;11.576;2023-04-25T22:52:10;5.40;;;4.90;;
26034;SDS011;13809;48.632;11.576;2023-04-25T22:57:15;5.20;;;4.77;;
26034;SDS011;13809;48.632;11.576;2023-04-25T23:02:18;4.83;;;4.33;;
26034;SDS011;13809;48.632;11.576;2023-04-25T23:07:22;5.47;;;4.53;;
26034;SDS011;13809;48.632;11.576;2023-04-25T23:12:26;5.43;;;4.90;;
26034;SDS011;13809;48.632;11.576;2023-04-25T23:17:29;4.37;;;4.07;;
26034;SDS011;13809;48.632;11.576;2023-04-25T23:22:33;4.90;;;4.40;;
26034;SDS011;13809;48.632;11.576;2023-04-25T23:27:37;4.53;;;4.13;;
26034;SDS011;13809;48.632;11.576;2023-04-25T23:32:40;4.90;;;4.40;;
26034;SDS011;13809;48.632;11.576;2023-04-25T23:37:43;3.80;;;3.50;;
26034;SDS011;13809;48.632;11.576;2023-04-25T23:42:50;4.77;;;4.37;;
26034;SDS011;13809;48.632;11.576;2023-04-25T23:47:53;5.03;;;4.57;;
26034;SDS011;13809;48.632;11.576;2023-04-25T23:52:57;5.27;;;4.77;;
26034;SDS011;13809;48.632;11.576;2023-04-25T23:58:01;5.03;;;4.57;;
